createdAt,value
2023-03-15T01:23:00.595Z,110.32
2023-03-15T01:24:00.674Z,109.44
2023-03-15T01:25:00.747Z,109.21
2023-03-15T01:26:00.814Z,108.50
2023-03-15T01:27:00.875Z,108.05
2023-03-15T01:28:01.020Z,109.05
2023-03-15T01:29:01.008Z,110.33
2023-03-15T02:01:03.004Z,105.92
2023-03-15T02:02:03.032Z,106.53
2023-03-15T02:03:03.059Z,106.86
2023-03-15T02:04:03.099Z,107.33
2023-03-15T02:05:03.149Z,105.69
2023-03-15T02:07:03.247Z,106.32
2023-03-15T02:08:03.291Z,107.00
2023-03-15T02:09:03.342Z,105.96
2023-03-15T02:10:03.425Z,105.25
2023-03-15T02:11:03.443Z,105.54
2023-03-15T02:12:03.487Z,104.65
2023-03-15T02:13:03.621Z,104.24
2023-03-15T02:14:03.614Z,106.33
2023-03-15T02:15:03.683Z,103.69
2023-03-15T02:16:03.781Z,102.96
2023-03-15T02:17:03.821Z,103.66
2023-03-15T02:18:03.882Z,104.58
2023-03-15T02:19:03.942Z,105.53
2023-03-15T02:20:04.011Z,103.84
2023-03-15T02:21:04.068Z,103.45
2023-03-15T02:22:04.130Z,103.19
2023-03-15T02:23:04.208Z,101.88
2023-03-15T02:24:04.253Z,105.80
2023-03-15T02:25:04.313Z,101.74
2023-03-15T02:26:04.371Z,100.66
2023-03-15T02:27:04.507Z,101.48
2023-03-15T02:28:04.490Z,101.08
2023-03-15T02:30:04.623Z,101.36
2023-03-15T04:00:10.670Z,90.68
2023-03-15T04:01:10.744Z,91.27
2023-03-15T04:02:10.800Z,91.36
2023-03-15T04:03:10.815Z,89.30
2023-03-15T04:04:10.877Z,89.27
2023-03-15T04:05:10.952Z,88.11
2023-03-15T04:06:11.142Z,86.84
2023-03-15T04:07:11.075Z,88.38
2023-03-15T04:08:11.144Z,87.99
2023-03-15T04:09:11.200Z,87.88
2023-03-15T04:10:11.250Z,90.15
2023-03-15T04:11:11.314Z,88.86
2023-03-15T04:12:11.396Z,88.73
2023-03-15T04:36:12.537Z,82.21
2023-03-15T06:53:21.250Z,41.50
2023-03-15T06:54:21.098Z,42.96
2023-03-15T06:59:21.092Z,42.28
2023-03-15T07:01:20.630Z,40.69
2023-03-15T07:02:20.695Z,40.57
2023-03-15T07:03:20.717Z,40.77
2023-03-15T07:04:20.772Z,39.46
2023-03-15T07:05:20.853Z,38.57
2023-03-15T07:06:20.905Z,37.20
2023-03-15T07:07:20.956Z,35.99
2023-03-15T07:09:21.080Z,35.77
2023-03-15T07:10:21.128Z,35.04
2023-03-15T09:27:31.577Z,68.56
2023-03-15T09:28:30.694Z,74.16
2023-03-15T09:29:30.772Z,72.65
2023-03-15T09:30:30.895Z,82.28
2023-03-15T09:31:31.032Z,88.81
2023-03-15T09:32:31.155Z,96.33
2023-03-15T09:33:31.223Z,99.47
2023-03-15T09:34:39.894Z,104.56
2023-03-15T09:36:31.415Z,105.87
2023-03-15T09:37:31.454Z,108.90
2023-03-15T09:38:31.496Z,115.17
2023-03-15T09:39:31.540Z,125.56
2023-03-15T09:40:31.582Z,128.13
2023-03-15T09:41:31.613Z,130.30
2023-03-15T09:42:31.662Z,133.96
2023-03-15T09:43:31.694Z,137.71
2023-03-15T09:44:31.732Z,140.19
2023-03-15T09:45:31.776Z,141.52
2023-03-15T09:46:33.106Z,142.97
2023-03-15T09:47:31.836Z,144.62
2023-03-15T09:48:31.874Z,147.17
2023-03-15T09:49:31.908Z,148.80
2023-03-15T09:50:31.949Z,149.76
2023-03-15T09:51:31.982Z,152.02
2023-03-15T09:52:32.026Z,152.87
2023-03-15T09:53:32.045Z,156.19
2023-03-15T09:54:32.088Z,157.35
2023-03-15T10:04:32.573Z,161.92
2023-03-15T10:11:33.083Z,165.21
2023-03-15T10:16:33.652Z,165.75
2023-03-15T10:39:34.738Z,175.78
2023-03-15T12:21:40.657Z,231.49
2023-03-15T12:22:40.741Z,231.34
2023-03-15T12:23:40.828Z,230.78
2023-03-15T12:24:40.933Z,231.09
2023-03-15T12:25:54.066Z,229.44
2023-03-15T12:26:42.032Z,229.54
2023-03-15T12:27:41.045Z,229.57
2023-03-15T12:28:41.070Z,229.51
2023-03-15T12:29:41.115Z,227.76
2023-03-15T12:30:41.183Z,227.88
2023-03-15T12:31:41.173Z,227.98
2023-03-15T12:32:41.221Z,227.73
2023-03-15T12:33:41.231Z,226.32
2023-03-15T12:34:41.267Z,225.06
2023-03-15T12:35:41.313Z,224.12
2023-03-15T12:36:41.386Z,223.29
2023-03-15T12:37:41.505Z,222.26
2023-03-15T12:38:41.563Z,223.55
2023-03-15T12:39:41.636Z,223.62
2023-03-15T12:40:41.712Z,221.67
2023-03-15T12:41:41.804Z,221.46
2023-03-15T12:42:41.873Z,221.61
2023-03-15T12:43:41.943Z,221.24
2023-03-15T12:44:42.021Z,219.15
2023-03-15T12:45:42.103Z,218.26
2023-03-15T12:46:42.173Z,218.57
2023-03-15T12:47:42.268Z,216.84
2023-03-15T12:48:42.333Z,217.25
2023-03-15T12:49:42.387Z,217.15
2023-03-15T12:50:42.490Z,216.43
2023-03-15T12:51:42.564Z,215.30
2023-03-15T12:52:42.630Z,214.97
2023-03-15T12:53:42.710Z,215.34
2023-03-15T12:54:42.785Z,214.24
2023-03-15T12:55:42.874Z,212.20
2023-03-15T12:56:42.936Z,213.98
2023-03-15T12:57:43.020Z,210.26
2023-03-15T12:58:43.101Z,209.59
2023-03-15T12:59:43.725Z,208.94
2023-03-15T13:00:43.254Z,211.43
2023-03-15T13:01:43.418Z,208.83
2023-03-15T13:02:44.516Z,209.22
2023-03-15T13:03:43.508Z,209.46
2023-03-15T13:04:43.604Z,208.15
2023-03-15T13:05:45.205Z,206.89
2023-03-15T13:06:43.724Z,209.18
2023-03-15T13:07:51.154Z,209.87
2023-03-15T13:08:44.807Z,210.02
2023-03-15T13:09:43.841Z,209.94
2023-03-15T13:10:43.881Z,210.06
2023-03-15T13:11:43.928Z,208.94
2023-03-15T13:12:43.964Z,206.37
2023-03-15T13:13:44.044Z,203.51
2023-03-15T13:14:44.049Z,202.69
2023-03-15T13:15:44.131Z,196.99
2023-03-15T13:16:44.120Z,192.33
2023-03-15T13:17:44.163Z,186.79
2023-03-15T13:18:44.202Z,180.38
2023-03-15T13:19:44.240Z,178.14
2023-03-15T13:20:44.277Z,174.79
2023-03-15T13:21:44.321Z,173.31
2023-03-15T13:22:54.866Z,173.71
2023-03-15T13:23:45.392Z,173.77
2023-03-15T13:24:44.431Z,174.00
2023-03-15T13:25:44.458Z,173.98
2023-03-15T13:26:44.502Z,173.80
2023-03-15T13:27:44.536Z,172.87
2023-03-15T13:28:44.573Z,173.32
2023-03-15T13:29:44.613Z,171.59
2023-03-15T13:30:44.673Z,170.31
2023-03-15T13:31:44.715Z,170.54
2023-03-15T13:32:44.771Z,170.12
2023-03-15T13:33:44.767Z,166.45
2023-03-15T13:34:44.830Z,167.64
2023-03-15T13:35:44.899Z,167.09
2023-03-15T13:36:46.204Z,167.35
2023-03-15T13:37:44.935Z,167.15
2023-03-15T13:38:44.998Z,168.24
2023-03-15T13:39:45.011Z,167.83
2023-03-15T13:40:45.054Z,167.80
2023-03-15T13:41:45.093Z,165.56
2023-03-15T13:42:45.140Z,167.19
2023-03-15T13:43:45.179Z,165.83
2023-03-15T13:44:45.239Z,165.45
2023-03-15T13:45:45.262Z,166.43
2023-03-15T13:46:45.347Z,165.37
2023-03-15T13:47:45.323Z,166.94
2023-03-15T13:48:45.351Z,166.51
2023-03-15T13:49:45.385Z,163.47
2023-03-15T13:50:45.430Z,162.67
2023-03-15T13:51:45.481Z,162.25
2023-03-15T13:52:45.500Z,163.24
2023-03-15T13:53:49.831Z,162.54
2023-03-15T13:54:45.602Z,162.60
2023-03-15T13:55:45.614Z,162.56
2023-03-15T13:56:49.666Z,162.79
2023-03-15T13:57:45.692Z,162.59
2023-03-15T13:58:45.742Z,162.47
2023-03-15T13:59:45.775Z,161.22
2023-03-15T14:00:45.822Z,162.12
2023-03-15T14:01:45.928Z,160.48
2023-03-15T14:02:46.000Z,159.73
2023-03-15T14:03:45.985Z,159.87
2023-03-15T15:28:50.674Z,137.64
2023-03-15T15:29:50.767Z,137.55
2023-03-15T15:30:53.179Z,138.85
2023-03-15T15:31:51.049Z,136.74
2023-03-15T15:32:51.108Z,136.61
2023-03-15T15:33:51.115Z,136.22
2023-03-15T15:34:51.218Z,137.11
2023-03-15T15:35:51.336Z,135.95
2023-03-15T15:36:51.392Z,138.26
2023-03-15T15:37:51.499Z,135.83
2023-03-15T15:38:51.580Z,136.22
2023-03-15T15:39:51.659Z,138.43
2023-03-15T15:40:51.751Z,137.69
2023-03-15T15:41:51.863Z,137.62
2023-03-15T17:06:00.686Z,144.13
2023-03-15T17:07:00.776Z,144.38
2023-03-15T17:08:00.892Z,144.15
2023-03-15T17:09:00.978Z,143.43
2023-03-15T17:10:01.107Z,143.81
2023-03-15T17:11:01.203Z,143.45
2023-03-15T17:12:01.305Z,143.82
2023-03-15T17:13:01.402Z,145.91
2023-03-15T17:14:01.519Z,145.34
2023-03-15T17:15:01.632Z,144.74
2023-03-15T17:17:01.840Z,143.02
2023-03-15T17:18:01.950Z,143.91
2023-03-15T17:19:02.063Z,144.53
2023-03-15T18:53:10.673Z,144.39
2023-03-15T18:54:10.764Z,143.40
2023-03-15T18:55:10.868Z,143.59
2023-03-15T18:56:10.955Z,142.06
2023-03-15T18:57:11.061Z,142.61
2023-03-15T18:58:11.211Z,142.60
2023-03-15T18:59:11.244Z,144.11
2023-03-15T19:00:11.343Z,145.88
2023-03-15T19:01:11.437Z,145.04
2023-03-15T19:02:11.571Z,144.30
2023-03-15T19:03:11.644Z,144.68
2023-03-15T20:55:20.665Z,141.14
2023-03-15T20:56:20.734Z,141.40
2023-03-15T20:57:20.789Z,138.57
2023-03-15T20:58:20.875Z,142.65
2023-03-15T20:59:20.929Z,140.57
2023-03-15T21:00:21.409Z,140.35
2023-03-15T21:01:21.130Z,139.66
2023-03-15T21:02:21.090Z,137.96
2023-03-15T21:03:21.210Z,141.12
2023-03-15T21:04:21.207Z,140.35
2023-03-15T21:05:21.302Z,139.08
2023-03-15T21:06:21.357Z,139.05
2023-03-15T21:07:21.428Z,139.83
2023-03-15T21:08:21.545Z,137.90
2023-03-15T21:09:21.518Z,140.26
2023-03-15T21:10:21.922Z,139.64
2023-03-15T21:11:21.681Z,138.74
2023-03-15T21:12:21.744Z,139.87
2023-03-15T21:13:21.804Z,139.73
2023-03-15T21:14:21.862Z,139.66
2023-03-15T21:15:21.918Z,138.23
2023-03-15T21:16:22.039Z,138.67
2023-03-15T21:17:22.067Z,139.60
2023-03-15T21:18:22.100Z,138.09
2023-03-15T21:19:22.154Z,141.40
2023-03-15T21:20:22.491Z,140.77
2023-03-15T21:21:22.281Z,138.15
2023-03-15T21:22:22.322Z,137.91
2023-03-15T21:23:22.399Z,138.36
2023-03-15T21:24:22.423Z,139.76
2023-03-15T21:25:22.476Z,139.11
2023-03-15T21:26:22.555Z,138.55
2023-03-15T21:27:22.620Z,141.49
2023-03-15T21:28:22.666Z,139.11
2023-03-15T21:29:22.712Z,139.67
2023-03-15T21:30:23.034Z,138.27
2023-03-15T21:31:22.879Z,140.81
2023-03-15T21:32:23.003Z,137.37
2023-03-15T21:33:22.950Z,139.19
2023-03-15T21:34:22.999Z,139.80
2023-03-15T21:35:23.077Z,138.96
2023-03-15T21:36:23.076Z,135.55
2023-03-15T21:37:23.124Z,137.23
2023-03-15T21:38:23.187Z,139.16
2023-03-15T21:39:23.222Z,140.86
2023-03-15T21:40:23.643Z,139.93
2023-03-15T21:41:23.370Z,138.58
2023-03-15T21:42:23.435Z,136.78
2023-03-15T21:43:23.484Z,139.84
2023-03-15T21:44:23.524Z,138.00
2023-03-15T21:45:23.612Z,137.34
2023-03-15T21:46:23.739Z,136.91
2023-03-15T21:47:23.661Z,138.60
2023-03-15T21:48:23.754Z,138.51
2023-03-15T21:49:23.804Z,136.96
2023-03-15T21:50:24.098Z,138.45
2023-03-15T21:51:23.914Z,136.80
2023-03-15T21:52:23.953Z,135.04
2023-03-15T21:53:24.006Z,136.74
2023-03-15T21:54:24.052Z,137.75
2023-03-15T21:55:24.114Z,139.22
2023-03-15T21:56:25.973Z,136.96
2023-03-15T21:57:24.260Z,138.33
2023-03-15T21:58:24.304Z,138.69
2023-03-15T21:59:24.389Z,137.73
2023-03-15T22:00:24.708Z,138.24
2023-03-15T22:01:24.608Z,136.43
2023-03-15T22:02:24.607Z,134.88
2023-03-15T22:03:24.666Z,135.09
2023-03-15T22:04:24.807Z,136.85
2023-03-15T22:05:24.779Z,135.68
2023-03-15T22:06:24.852Z,136.76
2023-03-15T22:07:24.911Z,136.36
2023-03-15T22:08:24.984Z,137.04
2023-03-15T22:09:25.051Z,135.35
2023-03-15T22:10:25.450Z,136.01
2023-03-15T22:11:25.175Z,135.71
2023-03-15T22:12:25.258Z,135.60
2023-03-15T22:13:25.280Z,136.79
2023-03-15T22:14:25.337Z,135.86
2023-03-15T22:15:25.396Z,136.60
2023-03-15T22:16:25.570Z,135.37
2023-03-15T22:17:27.308Z,136.45
2023-03-15T22:18:25.545Z,135.97
2023-03-15T22:19:25.585Z,136.50
2023-03-15T22:20:26.010Z,137.28
2023-03-15T22:21:25.687Z,136.95
2023-03-15T22:22:25.734Z,136.06
2023-03-15T22:23:25.785Z,135.90
2023-03-15T22:24:25.822Z,134.30
2023-03-15T22:25:25.869Z,134.60
2023-03-15T22:26:25.909Z,135.02
2023-03-15T22:27:25.961Z,136.85
2023-03-15T22:28:26.009Z,136.16
2023-03-15T22:29:26.049Z,132.46
2023-03-15T22:30:26.523Z,134.57
2023-03-15T22:31:26.166Z,134.79
2023-03-15T22:32:26.225Z,136.70
2023-03-15T22:33:26.240Z,134.37
2023-03-15T22:34:26.281Z,135.34
2023-03-15T22:35:26.379Z,134.29
2023-03-15T22:36:26.389Z,134.26
2023-03-15T22:37:26.422Z,132.06
2023-03-15T22:38:26.486Z,134.32
2023-03-15T22:39:26.517Z,133.58
2023-03-15T22:40:27.055Z,131.57
2023-03-15T22:41:26.606Z,134.10
2023-03-15T22:42:26.652Z,134.00
2023-03-15T22:43:26.707Z,132.20
2023-03-15T22:44:28.437Z,132.49
2023-03-15T22:45:26.813Z,132.62
2023-03-15T22:46:26.895Z,132.78
2023-03-15T22:47:26.899Z,132.85
2023-03-15T22:48:26.943Z,134.08
2023-03-15T22:49:26.999Z,134.97
2023-03-15T22:50:27.373Z,134.21
2023-03-15T22:51:27.081Z,131.86
2023-03-15T22:52:27.145Z,135.33
2023-03-15T22:53:27.170Z,132.97
2023-03-15T22:54:27.219Z,134.19
2023-03-15T22:55:27.265Z,134.27
2023-03-15T22:56:27.304Z,131.65
2023-03-15T22:57:27.346Z,132.77
2023-03-15T22:58:27.396Z,131.46
2023-03-15T22:59:27.419Z,131.80
2023-03-15T23:00:27.855Z,132.83
2023-03-15T23:01:27.525Z,131.41
2023-03-15T23:02:27.562Z,131.18
2023-03-15T23:03:27.581Z,132.96
2023-03-15T23:04:27.640Z,131.89
2023-03-15T23:05:27.676Z,132.21
2023-03-15T23:06:27.734Z,132.57
2023-03-15T23:07:27.928Z,129.33
2023-03-15T23:08:27.814Z,129.44
2023-03-15T23:09:27.861Z,131.68
2023-03-15T23:10:28.339Z,130.47
2023-03-15T23:11:27.952Z,131.26
2023-03-15T23:12:35.809Z,130.39
2023-03-15T23:13:29.040Z,130.63
2023-03-15T23:14:28.081Z,131.07
2023-03-15T23:15:28.116Z,131.09
2023-03-15T23:16:28.205Z,131.97
2023-03-15T23:17:28.213Z,133.61
2023-03-15T23:18:28.251Z,131.12
2023-03-15T23:19:28.299Z,130.45
2023-03-15T23:20:28.839Z,132.45
2023-03-15T23:21:28.376Z,131.99
2023-03-15T23:22:28.415Z,131.17
2023-03-15T23:23:28.471Z,131.41
2023-03-15T23:24:28.512Z,132.50
2023-03-15T23:25:28.556Z,132.27
2023-03-15T23:26:28.600Z,130.10
2023-03-15T23:27:28.648Z,130.76
2023-03-15T23:28:28.692Z,130.98
2023-03-15T23:29:28.736Z,130.97
2023-03-15T23:30:29.098Z,130.93
2023-03-15T23:31:28.849Z,129.08
2023-03-15T23:32:28.900Z,128.86
2023-03-15T23:33:28.941Z,128.70
2023-03-15T23:34:28.997Z,127.67
2023-03-15T23:35:29.086Z,131.45
2023-03-15T23:36:29.117Z,129.17
2023-03-15T23:37:29.177Z,128.89
2023-03-15T23:38:29.242Z,130.24
2023-03-15T23:39:29.311Z,126.80
2023-03-15T23:40:29.694Z,130.30
